Fayetteville, Ohio
Current Conditions -  °F | °C
As of 10:54 AM on Monday 29 Dec 2014 (Local Time) from KILN Reporting Station
Clear Clear  
Wind Chill: 22°   Ceiling: Unl
Heat Index: 30°   Visibility: 8mi
Dew Point: 24°   Wind: 8mph
Humidity: 79%   Direction: 50°NE
Pressure: 30.28"   Gusts: NA
Location:  39.19°N, 83.93°W
Report Text: KILN 291554Z AUTO 05007KT 8SM CLR M01/M04 A3028 RMK AO2 SLP281 T10111044
Loading
Personal Weather Stations






























Interactive Weather Map New forecast layout! Learn more

10-Day Weather Forecast

Advertisements
Track Severe Weather on mobile